createdAt,value
2019-04-16T00:02:55.400Z,42.50
2019-04-16T00:13:19.318Z,44.88
2019-04-16T00:18:23.342Z,36.85
2019-04-16T00:23:39.429Z,45.90
2019-04-16T00:28:42.516Z,46.23
2019-04-16T00:33:45.570Z,38.88
2019-04-16T00:38:48.607Z,38.35
2019-04-16T00:43:51.804Z,34.43
2019-04-16T00:48:54.973Z,39.25
2019-04-16T00:53:58.017Z,33.70
2019-04-16T00:59:01.187Z,33.28
2019-04-16T01:04:05.322Z,34.95
2019-04-16T01:09:09.006Z,38.13
2019-04-16T01:14:12.179Z,36.05
2019-04-16T01:19:15.547Z,34.73
2019-04-16T01:24:20.213Z,33.70
2019-04-16T01:29:23.974Z,41.30
2019-04-16T01:34:49.433Z,37.23
2019-04-16T01:39:54.297Z,35.17
2019-04-16T01:44:59.781Z,37.50
2019-04-16T01:50:02.660Z,34.63
2019-04-16T01:55:06.232Z,33.50
2019-04-16T02:00:10.035Z,39.17
2019-04-16T02:05:13.598Z,33.02
2019-04-16T02:10:16.869Z,37.75
2019-04-16T02:15:21.935Z,32.88
2019-04-16T02:20:25.003Z,35.38
2019-04-16T02:25:28.452Z,28.40
2019-04-16T02:30:37.578Z,27.85
2019-04-16T02:35:36.531Z,31.90
2019-04-16T02:40:39.736Z,34.70
2019-04-16T02:45:43.070Z,30.80
2019-04-16T02:50:48.688Z,28.07
2019-04-16T02:56:18.757Z,41.37
2019-04-16T03:01:44.810Z,39.80
2019-04-16T03:06:47.930Z,39.67
2019-04-16T03:11:51.338Z,42.03
2019-04-16T03:17:10.667Z,47.05
2019-04-16T03:22:13.251Z,46.55
2019-04-16T03:27:16.407Z,48.73
2019-04-16T03:32:19.467Z,55.00
2019-04-16T03:37:22.666Z,48.23
2019-04-16T03:42:27.381Z,59.60
2019-04-16T03:47:31.121Z,65.67
2019-04-16T03:52:34.523Z,71.00
2019-04-16T03:57:37.578Z,68.20
2019-04-16T04:02:40.729Z,62.63
2019-04-16T04:07:44.953Z,54.30
2019-04-16T04:12:48.344Z,67.42
2019-04-16T04:17:51.525Z,59.50
2019-04-16T04:22:57.059Z,40.54
2019-04-16T04:28:00.017Z,59.03
2019-04-16T04:33:07.426Z,53.77
2019-04-16T04:38:08.066Z,69.30
2019-04-16T04:43:11.237Z,66.07
2019-04-16T04:48:14.395Z,54.08
2019-04-16T04:53:19.434Z,48.70
2019-04-16T04:58:22.566Z,60.17
2019-04-16T05:04:02.137Z,63.08
2019-04-16T05:09:06.585Z,63.55
2019-04-16T05:14:09.672Z,64.45
2019-04-16T05:19:14.852Z,62.62
2019-04-16T05:24:17.869Z,69.07
2019-04-16T05:29:21.006Z,60.90
2019-04-16T05:34:24.094Z,64.30
2019-04-16T05:39:28.590Z,77.12
2019-04-16T05:44:34.015Z,58.17
2019-04-16T05:49:37.107Z,55.33
2019-04-16T05:55:01.408Z,56.35
2019-04-16T06:00:12.240Z,63.30
2019-04-16T06:05:15.628Z,59.40
2019-04-16T06:10:19.224Z,59.13
2019-04-16T06:15:34.369Z,55.75
2019-04-16T06:21:02.957Z,48.25
2019-04-16T06:26:37.759Z,43.75
2019-04-16T06:31:59.682Z,43.73
2019-04-16T06:37:26.758Z,38.05
2019-04-16T06:42:34.552Z,42.93
2019-04-16T06:47:55.849Z,40.00
2019-04-16T06:53:25.038Z,44.53
2019-04-16T06:58:57.242Z,42.40
2019-04-16T07:04:29.513Z,41.13
2019-04-16T07:09:46.680Z,43.33
2019-04-16T07:14:49.794Z,41.35
2019-04-16T07:19:53.012Z,43.08
2019-04-16T07:24:56.899Z,38.13
2019-04-16T07:30:08.868Z,36.98
2019-04-16T07:35:31.956Z,33.92
2019-04-16T07:40:53.047Z,39.67
2019-04-16T07:46:03.550Z,40.65
2019-04-16T07:51:17.592Z,44.53
2019-04-16T07:56:23.384Z,33.08
2019-04-16T08:01:26.664Z,30.30
2019-04-16T08:06:29.731Z,28.73
2019-04-16T08:11:33.352Z,38.30
2019-04-16T08:16:47.134Z,34.78
2019-04-16T08:21:44.249Z,32.95
2019-04-16T08:26:46.578Z,21.70
2019-04-16T08:31:50.067Z,8.00
2019-04-16T08:36:53.142Z,11.73
2019-04-16T08:41:56.279Z,4.75
2019-04-16T08:46:59.606Z,7.58
2019-04-16T08:52:02.901Z,8.80
2019-04-16T08:57:06.364Z,7.58
2019-04-16T09:02:10.510Z,9.88
2019-04-16T09:07:31.739Z,10.28
2019-04-16T09:12:34.937Z,7.65
2019-04-16T09:17:40.790Z,7.23
2019-04-16T09:22:49.364Z,12.17
2019-04-16T09:27:53.192Z,12.37
2019-04-16T09:33:06.504Z,5.45
2019-04-16T09:38:28.031Z,6.42
2019-04-16T09:43:32.046Z,4.53
2019-04-16T09:48:35.604Z,7.72
2019-04-16T09:53:40.365Z,11.03
2019-04-16T09:58:44.133Z,10.00
2019-04-16T10:03:49.527Z,10.43
2019-04-16T10:08:52.789Z,9.98
2019-04-16T10:13:56.008Z,8.05
2019-04-16T10:18:59.472Z,13.93
2019-04-16T10:24:17.536Z,11.78
2019-04-16T10:29:20.812Z,6.75
2019-04-16T10:34:23.979Z,11.48
2019-04-16T10:39:49.402Z,6.45
2019-04-16T10:45:12.929Z,6.50
2019-04-16T10:50:25.779Z,6.50
2019-04-16T10:55:47.473Z,11.50
2019-04-16T11:00:56.475Z,8.53
2019-04-16T11:06:04.302Z,9.93
2019-04-16T11:11:07.478Z,6.22
2019-04-16T11:16:12.548Z,9.88
2019-04-16T11:21:15.953Z,9.40
2019-04-16T11:26:19.371Z,7.10
2019-04-16T11:31:22.665Z,9.18
2019-04-16T11:36:30.601Z,6.47
2019-04-16T11:41:30.835Z,10.03
2019-04-16T11:46:35.154Z,6.17
2019-04-16T11:51:38.274Z,6.53
2019-04-16T11:56:44.744Z,12.18
2019-04-16T12:02:05.851Z,8.10
2019-04-16T12:07:40.592Z,6.75
2019-04-16T12:13:09.052Z,8.18
2019-04-16T12:18:32.297Z,9.43
2019-04-16T12:23:53.488Z,5.60
2019-04-16T12:29:18.901Z,8.10
2019-04-16T12:34:44.240Z,8.83
2019-04-16T12:40:05.501Z,6.12
2019-04-16T12:45:27.098Z,5.83
2019-04-16T12:50:39.043Z,8.53
2019-04-16T12:56:10.584Z,7.07
2019-04-16T13:01:21.378Z,6.40
2019-04-16T13:06:32.887Z,5.97
2019-04-16T13:11:45.100Z,7.58
2019-04-16T13:17:07.052Z,8.00
2019-04-16T13:22:11.090Z,5.67
2019-04-16T13:27:30.824Z,6.70
2019-04-16T13:32:33.990Z,11.15
2019-04-16T13:37:38.039Z,10.33
2019-04-16T13:42:41.397Z,7.33
2019-04-16T13:47:45.808Z,8.75
2019-04-16T13:52:52.006Z,6.10
2019-04-16T13:58:04.257Z,7.33
2019-04-16T14:03:10.512Z,8.90
2019-04-16T14:08:13.641Z,8.98
2019-04-16T14:13:16.788Z,8.10
2019-04-16T14:18:21.808Z,6.28
2019-04-16T14:23:25.030Z,11.65
2019-04-16T14:28:28.176Z,8.60
2019-04-16T14:33:51.159Z,7.58
2019-04-16T14:38:58.050Z,7.70
2019-04-16T14:44:06.672Z,5.25
2019-04-16T14:49:09.923Z,8.25
2019-04-16T14:54:35.934Z,7.55
2019-04-16T14:59:57.165Z,3.97
2019-04-16T15:05:08.506Z,3.12
2019-04-16T15:10:26.167Z,7.37
2019-04-16T15:15:38.454Z,7.53
2019-04-16T15:21:16.343Z,11.65
2019-04-16T15:26:31.061Z,7.30
2019-04-16T15:31:56.128Z,8.93
2019-04-16T15:37:18.833Z,6.55
2019-04-16T15:42:36.433Z,6.33
2019-04-16T15:47:58.222Z,7.60
2019-04-16T15:53:05.574Z,6.10
2019-04-16T15:58:14.431Z,5.03
2019-04-16T16:03:40.192Z,6.45
2019-04-16T16:09:09.241Z,4.83
2019-04-16T16:14:12.581Z,6.40
2019-04-16T16:19:15.717Z,6.55
2019-04-16T16:24:18.802Z,5.70
2019-04-16T16:29:22.062Z,5.53
2019-04-16T16:34:25.441Z,8.33
2019-04-16T16:39:28.796Z,3.37
2019-04-16T16:44:32.057Z,6.25
2019-04-16T16:49:35.618Z,3.70
2019-04-16T16:54:39.075Z,5.17
2019-04-16T17:00:07.518Z,4.25
2019-04-16T17:05:16.298Z,7.22
2019-04-16T17:10:19.483Z,4.55
2019-04-16T17:15:22.915Z,6.78
2019-04-16T17:20:26.373Z,5.50
2019-04-16T17:25:36.505Z,5.87
2019-04-16T17:30:35.618Z,7.00
2019-04-16T17:35:39.102Z,7.17
2019-04-16T17:40:51.117Z,9.13
2019-04-16T17:46:24.940Z,4.28
2019-04-16T17:51:45.102Z,7.25
2019-04-16T17:57:13.828Z,8.35
2019-04-16T18:02:52.113Z,7.50
2019-04-16T18:08:08.069Z,13.15
2019-04-16T18:13:32.245Z,9.83
2019-04-16T18:18:57.188Z,9.13
2019-04-16T18:24:19.031Z,8.48
2019-04-16T18:29:32.826Z,9.38
2019-04-16T18:34:43.429Z,11.00
2019-04-16T18:39:53.434Z,14.18
2019-04-16T18:45:05.036Z,7.92
2019-04-16T18:50:15.602Z,13.00
2019-04-16T18:55:19.099Z,7.47
2019-04-16T19:00:48.193Z,11.40
2019-04-16T19:05:51.298Z,10.78
2019-04-16T19:10:54.977Z,9.28
2019-04-16T19:15:58.510Z,6.70
2019-04-16T19:21:01.718Z,5.25
2019-04-16T19:26:05.558Z,5.25
2019-04-16T19:31:09.060Z,6.00
2019-04-16T19:36:12.676Z,4.90
2019-04-16T19:41:16.033Z,4.37
2019-04-16T19:46:19.719Z,4.92
2019-04-16T19:51:23.116Z,7.35
2019-04-16T19:56:26.492Z,6.80
2019-04-16T20:01:29.837Z,4.85
2019-04-16T20:06:33.520Z,6.75
2019-04-16T20:11:36.969Z,8.18
2019-04-16T20:16:40.273Z,4.58
2019-04-16T20:21:43.412Z,7.00
2019-04-16T20:26:46.633Z,5.85
2019-04-16T20:31:49.782Z,5.92
2019-04-16T20:36:55.796Z,6.45
2019-04-16T20:42:00.117Z,6.17
2019-04-16T20:47:07.733Z,8.80
2019-04-16T20:52:08.456Z,5.87
2019-04-16T20:57:11.609Z,4.87
2019-04-16T21:02:14.697Z,7.15
2019-04-16T21:07:17.825Z,6.33
2019-04-16T21:12:21.146Z,7.92
2019-04-16T21:17:24.617Z,6.72
2019-04-16T21:22:28.909Z,7.85
2019-04-16T21:27:34.842Z,7.50
2019-04-16T21:33:00.543Z,8.70
2019-04-16T21:38:23.153Z,9.23
2019-04-16T21:43:26.434Z,9.20
2019-04-16T21:48:30.011Z,7.78
2019-04-16T21:53:33.188Z,7.40
2019-04-16T21:58:36.720Z,7.45
2019-04-16T22:03:42.256Z,7.87
2019-04-16T22:08:45.087Z,10.80
2019-04-16T22:13:50.715Z,9.55
2019-04-16T22:18:53.376Z,9.13
2019-04-16T22:23:56.591Z,10.10
2019-04-16T22:28:59.640Z,9.48
2019-04-16T22:34:02.841Z,10.43
2019-04-16T22:39:23.911Z,16.37
2019-04-16T22:44:46.522Z,13.38
2019-04-16T22:49:51.568Z,13.75
2019-04-16T22:54:54.846Z,12.90
2019-04-16T22:59:57.899Z,11.20
2019-04-16T23:05:01.007Z,11.90
2019-04-16T23:10:04.861Z,13.05
2019-04-16T23:15:09.859Z,15.58
2019-04-16T23:20:28.150Z,11.43
2019-04-16T23:25:17.957Z,12.28
2019-04-16T23:30:21.057Z,11.78
2019-04-16T23:35:25.069Z,13.20
2019-04-16T23:40:28.304Z,16.45
2019-04-16T23:46:01.373Z,16.35
2019-04-16T23:51:12.656Z,13.48
2019-04-16T23:56:35.344Z,13.83
